Time;durP1;ratioP1;P1;durP2;ratioP2;P2;SDS_P1;SDS_P2;PMS_P1;PMS_P2;Temp;Humidity;BMP_temperature;BMP_pressure;BME280_temperature;BME280_humidity;BME280_pressure;Samples;Min_cycle;Max_cycle;Signal;HPM_P1;HPM_P2
2021/10/14 00:01:29;;;;;;;;;;;;;;;19.35;74.75;101182.91;4990902;28;1977;-88
2021/10/14 00:03:56;;;;;;;;;;;;;;;19.34;73.75;101178.53;4997290;28;1486;-87
2021/10/14 00:06:22;;;;;;;;;;;;;;;19.33;74.02;101174.13;4993552;28;988;-86
2021/10/14 00:08:49;;;;;;;;;;;;;;;19.33;74.68;101173.28;4993091;28;1453;-86
2021/10/14 00:11:17;;;;;;;;;;;;;;;19.36;74.75;101181.06;4988633;28;1503;-87
2021/10/14 00:13:45;;;;;;;;;;;;;;;19.36;74.68;101192.66;5000925;28;1443;-86
2021/10/14 00:16:13;;;;;;;;;;;;;;;19.34;74.74;101191.94;4996093;28;1427;-87
2021/10/14 00:18:39;;;;;;;;;;;;;;;19.32;74.12;101179.63;5005938;28;1497;-86
2021/10/14 00:21:06;;;;;;;;;;;;;;;19.31;73.95;101184.13;4999750;28;2005;-86
2021/10/14 00:23:32;;;;;;;;;;;;;;;19.30;74.32;101174.41;4992163;28;1739;-89
2021/10/14 00:25:59;;;;;;;;;;;;;;;19.30;74.11;101182.44;4987725;28;1404;-87
2021/10/14 00:28:29;;;;;;;;;;;;;;;19.34;74.98;101178.53;4989334;28;1699;-88
2021/10/14 00:30:56;;;;;;;;;;;;;;;19.35;74.98;101187.41;4991797;28;1600;-86
2021/10/14 00:33:22;;;;;;;;;;;;;;;19.31;73.92;101184.13;4992882;28;1652;-86
2021/10/14 00:35:49;;;;;;;;;;;;;;;19.29;74.17;101186.09;4986847;28;1286;-85
2021/10/14 00:38:17;;;;;;;;;;;;;;;19.28;73.95;101187.09;4987963;28;1384;-86
2021/10/14 00:40:46;;;;;;;;;;;;;;;19.33;74.80;101194.75;4989759;28;1584;-86
2021/10/14 00:43:12;;;;;;;;;;;;;;;19.32;74.81;101187.66;4988889;28;1997;-86
2021/10/14 00:45:40;;;;;;;;;;;;;;;19.32;74.67;101191.22;4991472;28;1662;-86
2021/10/14 00:48:15;;;;;;;;;;;;;;;19.31;74.05;101194.03;4998162;28;1234;-88
2021/10/14 00:50:42;;;;;;;;;;;;;;;19.31;74.27;101194.88;5004452;28;1547;-86
2021/10/14 00:53:15;;;;;;;;;;;;;;;19.30;73.76;101186.94;4998893;28;1425;-87
2021/10/14 00:55:43;;;;;;;;;;;;;;;19.27;74.54;101188.06;4994580;28;1762;-87
2021/10/14 00:58:09;;;;;;;;;;;;;;;19.29;74.83;101210.22;4992190;28;1396;-86
2021/10/14 01:00:36;;;;;;;;;;;;;;;19.26;74.15;101213.19;4987444;28;1434;-86
2021/10/14 01:03:05;;;;;;;;;;;;;;;19.31;74.78;101221.69;4993180;28;1971;-85
2021/10/14 01:05:31;;;;;;;;;;;;;;;19.28;74.32;101211.22;5004054;28;1475;-86
2021/10/14 01:07:58;;;;;;;;;;;;;;;19.28;75.01;101205.84;4997108;28;1802;-86
2021/10/14 01:10:24;;;;;;;;;;;;;;;19.25;74.51;101206.09;4991327;28;1691;-86
2021/10/14 01:12:51;;;;;;;;;;;;;;;19.27;74.51;101209.50;4989449;28;1623;-87
2021/10/14 01:15:19;;;;;;;;;;;;;;;19.26;74.62;101223.91;4994738;28;1513;-86
2021/10/14 01:17:45;;;;;;;;;;;;;;;19.24;75.03;101218.66;4996988;28;1397;-88
2021/10/14 01:20:13;;;;;;;;;;;;;;;19.28;74.22;101225.47;4993996;28;1302;-86
2021/10/14 01:22:40;;;;;;;;;;;;;;;19.26;74.75;101224.75;5000463;28;1983;-88
2021/10/14 01:25:08;;;;;;;;;;;;;;;19.27;74.90;101228.28;4994815;28;1395;-87
2021/10/14 01:27:34;;;;;;;;;;;;;;;19.25;74.79;101225.72;4998544;28;1355;-86
2021/10/14 01:30:01;;;;;;;;;;;;;;;19.24;74.50;101220.50;4983307;28;1372;-87
2021/10/14 01:32:27;;;;;;;;;;;;;;;19.25;75.04;101230.22;5013675;28;1530;-86
2021/10/14 01:34:54;;;;;;;;;;;;;;;19.20;75.07;101241.34;4993249;28;1505;-86
2021/10/14 01:37:27;;;;;;;;;;;;;;;19.23;74.27;101230.34;5005444;28;1591;-87
2021/10/14 01:40:16;;;;;;;;;;;;;;;19.23;74.89;101238.38;4997468;28;1532;-86
2021/10/14 01:42:42;;;;;;;;;;;;;;;19.21;74.87;101234.13;4977571;28;1906;-87
2021/10/14 01:45:10;;;;;;;;;;;;;;;19.25;74.82;101235.59;4993329;28;1770;-87
2021/10/14 01:47:36;;;;;;;;;;;;;;;19.24;74.01;101231.22;4998588;28;1353;-87
2021/10/14 01:50:05;;;;;;;;;;;;;;;19.21;74.22;101236.81;4980109;28;973;-85
2021/10/14 01:52:44;;;;;;;;;;;;;;;19.23;74.86;101234.88;4987115;28;1615;-86
2021/10/14 01:55:10;;;;;;;;;;;;;;;19.22;73.89;101225.97;4993227;28;1592;-86
2021/10/14 01:57:45;;;;;;;;;;;;;;;19.25;74.08;101243.63;4994804;28;1506;-87
2021/10/14 02:02:53;;;;;;;;;;;;;;;19.20;73.74;101262.78;4978516;23;3081;-45
2021/10/14 02:08:03;;;;;;;;;;;;;;;19.16;74.14;101255.09;4980850;28;2582;-44
2021/10/14 02:10:32;;;;;;;;;;;;;;;19.17;74.35;101254.97;4974597;28;1550;-44
2021/10/14 02:12:59;;;;;;;;;;;;;;;19.12;74.09;101253.66;4980049;28;1479;-48
2021/10/14 02:15:29;;;;;;;;;;;;;;;19.15;73.56;101254.25;4991220;28;1452;-45
2021/10/14 02:17:58;;;;;;;;;;;;;;;19.15;74.64;101240.00;4985784;28;1614;-44
2021/10/14 02:20:27;;;;;;;;;;;;;;;19.12;74.17;101235.75;4981000;28;1073;-44
2021/10/14 02:22:57;;;;;;;;;;;;;;;19.09;74.28;101219.91;4988422;28;2100;-44
2021/10/14 02:25:29;;;;;;;;;;;;;;;19.10;74.66;101236.84;4988469;28;1539;-44
2021/10/14 02:27:58;;;;;;;;;;;;;;;19.08;74.68;101240.50;4978106;28;1685;-45
2021/10/14 02:30:28;;;;;;;;;;;;;;;19.10;73.25;101240.38;4989411;28;1659;-44
2021/10/14 02:32:56;;;;;;;;;;;;;;;19.19;73.89;101246.81;4977625;28;1918;-44
2021/10/14 02:35:23;;;;;;;;;;;;;;;19.58;72.91;101260.63;4986473;28;1188;-44
2021/10/14 02:37:50;;;;;;;;;;;;;;;19.54;72.66;101257.34;4980875;28;1798;-45
2021/10/14 02:40:16;;;;;;;;;;;;;;;19.51;72.84;101248.69;4988828;28;1744;-44
2021/10/14 02:42:49;;;;;;;;;;;;;;;19.58;72.62;101249.91;4987050;28;1910;-44
2021/10/14 02:45:17;;;;;;;;;;;;;;;19.48;72.98;101239.91;4988756;28;1482;-44
2021/10/14 02:47:44;;;;;;;;;;;;;;;19.58;73.52;101252.56;4989688;28;1588;-46
2021/10/14 02:50:11;;;;;;;;;;;;;;;19.62;72.61;101235.25;4978801;28;1329;-44
2021/10/14 02:52:58;;;;;;;;;;;;;;;19.75;71.98;101251.19;4988777;28;1867;-43
2021/10/14 02:58:12;;;;;;;;;;;;;;;19.96;71.34;101268.16;4979640;28;2293;-43
2021/10/14 03:00:40;;;;;;;;;;;;;;;19.91;71.14;101266.84;4973979;28;2013;-44
2021/10/14 03:03:07;;;;;;;;;;;;;;;19.96;71.84;101275.38;4989858;28;1903;-44
2021/10/14 03:05:37;;;;;;;;;;;;;;;19.97;72.07;101266.31;4986866;28;1416;-44
2021/10/14 03:08:10;;;;;;;;;;;;;;;19.96;72.02;101272.69;4982305;28;1752;-43
2021/10/14 03:10:40;;;;;;;;;;;;;;;20.05;72.04;101285.31;4982308;28;1367;-44
2021/10/14 03:13:12;;;;;;;;;;;;;;;20.00;71.09;101271.44;4973006;28;1754;-43
2021/10/14 03:15:42;;;;;;;;;;;;;;;20.09;71.81;101276.03;4978211;28;1780;-44
2021/10/14 03:18:12;;;;;;;;;;;;;;;20.00;71.37;101266.94;4978496;28;1889;-44
2021/10/14 03:20:42;;;;;;;;;;;;;;;19.99;71.89;101270.56;4984478;28;1577;-44
2021/10/14 03:23:12;;;;;;;;;;;;;;;20.08;72.07;101279.69;4973330;28;1902;-44
2021/10/14 03:25:43;;;;;;;;;;;;;;;19.94;72.36;101288.06;4986330;28;1674;-44
2021/10/14 03:28:20;;;;;;;;;;;;;;;19.81;72.51;101283.72;4973659;28;1620;-44
2021/10/14 03:30:50;;;;;;;;;;;;;;;19.80;72.59;101291.91;4986971;28;1305;-44
2021/10/14 03:33:19;;;;;;;;;;;;;;;20.05;71.62;101298.75;4986682;28;1485;-43
2021/10/14 03:35:49;;;;;;;;;;;;;;;19.97;72.26;101294.00;4984477;28;1072;-43
2021/10/14 03:38:20;;;;;;;;;;;;;;;19.84;71.99;101294.22;4987260;28;1877;-44
2021/10/14 03:40:46;;;;;;;;;;;;;;;19.80;72.06;101314.22;4990071;28;1502;-43
2021/10/14 03:43:19;;;;;;;;;;;;;;;19.94;71.90;101293.44;4981528;28;1910;-45
2021/10/14 03:48:30;;;;;;;;;;;;;;;19.94;71.25;101309.56;4988930;28;2439;-44
2021/10/14 03:51:06;;;;;;;;;;;;;;;19.82;72.37;101314.09;4984795;28;1270;-44
2021/10/14 03:53:33;;;;;;;;;;;;;;;19.82;71.34;101312.28;4977351;28;1514;-43
2021/10/14 03:56:03;;;;;;;;;;;;;;;19.83;72.14;101313.97;4982289;28;1563;-44
2021/10/14 03:58:45;;;;;;;;;;;;;;;19.73;71.36;101328.28;4984359;28;1454;-44
2021/10/14 04:01:16;;;;;;;;;;;;;;;19.68;73.08;101332.16;4977133;28;1889;-44
2021/10/14 04:03:42;;;;;;;;;;;;;;;19.64;71.77;101335.22;4979760;28;1906;-44
2021/10/14 04:06:10;;;;;;;;;;;;;;;19.59;72.08;101332.06;4993462;28;1430;-44
2021/10/14 04:08:37;;;;;;;;;;;;;;;19.56;71.90;101337.69;4994252;28;1803;-43
2021/10/14 04:11:05;;;;;;;;;;;;;;;19.61;71.92;101346.19;4994806;28;1658;-44
2021/10/14 04:13:37;;;;;;;;;;;;;;;19.93;71.21;101342.72;4983563;28;1855;-44
2021/10/14 04:16:11;;;;;;;;;;;;;;;20.23;71.12;101350.91;4985402;28;1703;-43
2021/10/14 04:18:41;;;;;;;;;;;;;;;20.33;69.79;101356.34;4990790;28;1818;-43
2021/10/14 04:23:50;;;;;;;;;;;;;;;20.26;70.66;101358.69;4990316;28;1988;-43
2021/10/14 04:26:17;;;;;;;;;;;;;;;20.27;70.21;101364.91;4976136;28;1794;-43
2021/10/14 04:28:57;;;;;;;;;;;;;;;20.32;70.33;101367.22;4985513;28;1727;-43
2021/10/14 04:31:24;;;;;;;;;;;;;;;20.30;70.36;101379.94;4992972;28;1345;-44
2021/10/14 04:33:51;;;;;;;;;;;;;;;20.45;69.28;101387.56;4989048;28;1467;-43
2021/10/14 04:36:18;;;;;;;;;;;;;;;20.31;70.20;101387.84;4995263;28;1836;-43
2021/10/14 04:38:48;;;;;;;;;;;;;;;20.31;71.12;101377.09;4975631;28;1569;-44
2021/10/14 04:41:15;;;;;;;;;;;;;;;20.23;70.34;101385.84;4989265;28;1506;-44
2021/10/14 04:43:45;;;;;;;;;;;;;;;20.19;71.46;101376.31;4978124;28;1975;-43
2021/10/14 04:46:20;;;;;;;;;;;;;;;20.12;70.21;101398.44;4984279;28;1677;-44
2021/10/14 04:48:50;;;;;;;;;;;;;;;20.15;71.43;101385.59;4990315;28;1829;-44
2021/10/14 04:51:18;;;;;;;;;;;;;;;20.07;69.73;101396.13;4989617;28;1566;-44
2021/10/14 04:53:45;;;;;;;;;;;;;;;20.14;69.94;101396.47;4990338;28;1522;-45
2021/10/14 04:56:12;;;;;;;;;;;;;;;20.13;70.79;101409.03;4989482;28;1573;-45
2021/10/14 04:58:41;;;;;;;;;;;;;;;19.97;70.55;101406.75;4993062;28;1713;-45
2021/10/14 05:01:08;;;;;;;;;;;;;;;20.13;70.27;101400.97;4982801;28;1764;-45
2021/10/14 05:03:40;;;;;;;;;;;;;;;20.12;70.88;101401.97;4980145;28;1910;-46
2021/10/14 05:06:09;;;;;;;;;;;;;;;20.09;70.82;101414.78;4977520;28;1566;-44
2021/10/14 05:08:38;;;;;;;;;;;;;;;20.05;71.83;101403.44;4974901;28;1404;-45
2021/10/14 05:11:15;;;;;;;;;;;;;;;20.04;71.05;101407.13;4975138;28;1668;-45
2021/10/14 05:16:24;;;;;;;;;;;;;;;20.52;70.43;101420.13;4978139;28;1605;-45
2021/10/14 05:18:54;;;;;;;;;;;;;;;20.48;70.04;101421.34;4990847;28;1467;-44
2021/10/14 05:21:29;;;;;;;;;;;;;;;20.32;70.94;101407.53;4985359;28;1368;-44
2021/10/14 05:24:00;;;;;;;;;;;;;;;20.27;72.04;101427.56;4991742;28;1922;-44
2021/10/14 05:26:34;;;;;;;;;;;;;;;20.30;71.80;101417.53;4980726;28;1608;-44
2021/10/14 05:29:01;;;;;;;;;;;;;;;20.10;70.70;101435.31;4982084;28;1508;-43
2021/10/14 05:31:29;;;;;;;;;;;;;;;19.96;71.49;101434.59;4984029;28;1733;-43
2021/10/14 05:34:01;;;;;;;;;;;;;;;19.94;71.03;101439.25;4986789;28;1807;-43
2021/10/14 05:36:31;;;;;;;;;;;;;;;20.04;70.99;101431.28;4987571;28;1661;-44
2021/10/14 05:39:00;;;;;;;;;;;;;;;20.15;71.47;101441.13;4992852;28;1471;-43
2021/10/14 05:41:36;;;;;;;;;;;;;;;19.99;71.27;101447.75;4992918;28;1849;-44
2021/10/14 05:44:04;;;;;;;;;;;;;;;19.89;71.40;101445.97;4988984;28;1981;-44
2021/10/14 05:46:38;;;;;;;;;;;;;;;19.96;72.01;101452.56;4984607;28;1501;-43
2021/10/14 05:49:14;;;;;;;;;;;;;;;20.20;71.28;101449.69;4986041;28;1612;-43
2021/10/14 05:51:45;;;;;;;;;;;;;;;20.05;70.41;101436.53;4974597;28;1055;-44
2021/10/14 05:54:14;;;;;;;;;;;;;;;19.96;71.95;101431.91;4987064;28;1505;-44
2021/10/14 05:56:42;;;;;;;;;;;;;;;19.94;70.66;101433.03;4975687;28;1527;-44
2021/10/14 05:59:09;;;;;;;;;;;;;;;20.09;70.42;101455.91;4983417;28;1771;-43
2021/10/14 06:01:35;;;;;;;;;;;;;;;20.13;70.75;101443.94;4987433;28;1656;-43
2021/10/14 06:04:04;;;;;;;;;;;;;;;20.04;70.61;101444.72;4991905;28;1985;-44
2021/10/14 06:06:35;;;;;;;;;;;;;;;19.96;70.64;101447.19;4995014;28;1254;-44
2021/10/14 06:09:05;;;;;;;;;;;;;;;19.94;70.51;101454.50;4996918;28;1626;-44
2021/10/14 06:11:36;;;;;;;;;;;;;;;20.15;70.89;101446.50;4989695;28;1458;-44
2021/10/14 06:14:02;;;;;;;;;;;;;;;20.18;70.85;101463.22;4986311;28;1764;-43
2021/10/14 06:16:29;;;;;;;;;;;;;;;20.08;71.14;101472.19;4983317;28;1515;-46
2021/10/14 06:18:55;;;;;;;;;;;;;;;19.97;70.41;101481.09;4987597;28;1700;-44
2021/10/14 06:21:25;;;;;;;;;;;;;;;20.08;71.07;101467.66;4992524;28;1767;-43
2021/10/14 06:23:55;;;;;;;;;;;;;;;20.35;70.32;101474.41;4990017;28;1912;-43
2021/10/14 06:26:25;;;;;;;;;;;;;;;20.30;69.85;101480.16;4975257;28;1452;-42
2021/10/14 06:28:52;;;;;;;;;;;;;;;20.14;71.32;101485.09;4984526;28;1590;-46
2021/10/14 06:31:20;;;;;;;;;;;;;;;20.06;70.02;101486.56;4984085;28;1648;-46
2021/10/14 06:33:55;;;;;;;;;;;;;;;20.27;70.18;101489.34;4980334;28;1468;-47
2021/10/14 06:36:26;;;;;;;;;;;;;;;20.23;70.48;101479.81;4989479;28;1601;-46
2021/10/14 06:38:53;;;;;;;;;;;;;;;20.12;71.12;101495.94;4991637;28;1553;-46
2021/10/14 06:41:21;;;;;;;;;;;;;;;20.03;71.40;101499.38;4990654;28;1828;-46
2021/10/14 06:43:51;;;;;;;;;;;;;;;20.01;70.57;101498.66;4984840;28;1956;-46
2021/10/14 06:46:20;;;;;;;;;;;;;;;20.10;71.00;101486.31;4977715;28;1615;-45
2021/10/14 06:48:55;;;;;;;;;;;;;;;19.88;70.49;101496.13;4983319;28;1786;-46
2021/10/14 06:51:25;;;;;;;;;;;;;;;19.90;70.77;101504.06;4993281;28;1959;-46
2021/10/14 06:53:54;;;;;;;;;;;;;;;19.82;71.14;101496.63;4976515;28;1748;-45
2021/10/14 06:56:24;;;;;;;;;;;;;;;20.02;71.28;101490.47;4980674;28;1793;-47
2021/10/14 06:58:54;;;;;;;;;;;;;;;20.18;70.33;101500.81;4978668;28;1634;-45
2021/10/14 07:01:22;;;;;;;;;;;;;;;20.13;70.21;101494.13;4982159;28;1386;-45
2021/10/14 07:03:50;;;;;;;;;;;;;;;20.09;70.30;101498.88;4990996;28;1902;-44
2021/10/14 07:06:17;;;;;;;;;;;;;;;20.06;70.33;101494.63;4982907;28;1577;-45
2021/10/14 07:11:32;;;;;;;;;;;;;;;20.00;70.50;101523.81;4991527;28;1673;-44
2021/10/14 07:14:00;;;;;;;;;;;;;;;19.97;70.91;101507.94;4986918;28;1608;-45
2021/10/14 07:16:27;;;;;;;;;;;;;;;19.97;71.14;101527.56;4986545;28;1613;-44
2021/10/14 07:18:55;;;;;;;;;;;;;;;20.13;70.36;101516.44;4991424;28;1537;-45
2021/10/14 07:21:22;;;;;;;;;;;;;;;20.05;70.01;101516.22;4993244;28;1537;-46
2021/10/14 07:23:52;;;;;;;;;;;;;;;19.95;70.12;101516.09;4990002;28;1981;-44
2021/10/14 07:26:19;;;;;;;;;;;;;;;19.84;70.34;101526.88;4982529;28;1696;-44
2021/10/14 07:28:52;;;;;;;;;;;;;;;20.00;70.95;101529.19;4985494;28;1348;-46
2021/10/14 07:34:00;;;;;;;;;;;;;;;19.95;70.36;101520.63;4989504;28;2462;-45
2021/10/14 07:36:27;;;;;;;;;;;;;;;19.83;71.14;101531.34;4992843;28;1470;-45
2021/10/14 07:38:54;;;;;;;;;;;;;;;19.81;71.29;101537.84;4990629;28;1584;-45
2021/10/14 07:41:21;;;;;;;;;;;;;;;19.82;71.72;101529.66;4995174;28;1459;-47
2021/10/14 07:43:53;;;;;;;;;;;;;;;19.89;71.35;101534.53;4989152;28;1882;-45
2021/10/14 07:46:20;;;;;;;;;;;;;;;19.95;69.99;101531.34;4980330;28;1483;-46
2021/10/14 07:48:50;;;;;;;;;;;;;;;19.93;70.39;101541.38;4982464;28;1631;-46
2021/10/14 07:51:20;;;;;;;;;;;;;;;20.00;70.26;101542.59;4979431;28;1686;-46
2021/10/14 07:53:50;;;;;;;;;;;;;;;19.90;71.47;101536.25;4992883;28;1658;-46
2021/10/14 07:56:17;;;;;;;;;;;;;;;19.84;70.74;101530.41;4985908;28;1490;-46
2021/10/14 08:01:28;;;;;;;;;;;;;;;19.92;71.60;101539.69;4983434;28;2448;-46
2021/10/14 08:06:36;;;;;;;;;;;;;;;19.93;70.96;101534.16;4981432;28;1891;-46
2021/10/14 08:09:07;;;;;;;;;;;;;;;19.82;71.06;101520.78;4984028;28;1698;-46
2021/10/14 08:11:42;;;;;;;;;;;;;;;19.89;72.09;101526.50;4985102;28;1529;-45
2021/10/14 08:14:12;;;;;;;;;;;;;;;20.23;70.14;101524.59;4977831;28;1922;-47
2021/10/14 08:16:54;;;;;;;;;;;;;;;20.11;70.96;101525.59;4989554;28;1653;-45
2021/10/14 08:19:29;;;;;;;;;;;;;;;19.99;70.68;101522.09;4993111;28;1560;-46
2021/10/14 08:22:04;;;;;;;;;;;;;;;20.09;71.04;101528.41;4990751;28;1802;-46
2021/10/14 08:25:01;;;;;;;;;;;;;;;20.14;71.31;101539.66;4976270;28;1911;-47
2021/10/14 08:27:29;;;;;;;;;;;;;;;20.16;70.61;101529.63;4988901;28;1935;-46
2021/10/14 08:29:59;;;;;;;;;;;;;;;20.04;71.44;101533.31;4990726;28;1502;-46
2021/10/14 08:32:26;;;;;;;;;;;;;;;19.96;70.74;101533.94;4977875;28;1690;-45
2021/10/14 08:34:56;;;;;;;;;;;;;;;20.13;71.26;101532.56;4993162;28;1874;-46
2021/10/14 08:40:04;;;;;;;;;;;;;;;20.13;71.43;101539.75;4992583;28;2144;-45
2021/10/14 08:42:34;;;;;;;;;;;;;;;19.99;71.32;101538.19;4990988;28;1629;-47
2021/10/14 08:45:12;;;;;;;;;;;;;;;19.96;71.40;101533.94;4992253;28;2131;-46
2021/10/14 08:47:40;;;;;;;;;;;;;;;20.25;69.79;101531.59;4980336;28;1486;-46
2021/10/14 08:50:12;;;;;;;;;;;;;;;20.13;70.84;101537.91;4994516;28;1755;-46
2021/10/14 08:52:40;;;;;;;;;;;;;;;20.06;71.52;101539.41;4991591;28;1954;-44
2021/10/14 08:55:10;;;;;;;;;;;;;;;20.09;71.25;101547.22;4988255;28;1461;-45
2021/10/14 08:57:39;;;;;;;;;;;;;;;20.20;70.18;101538.31;4988585;28;1622;-45
2021/10/14 09:00:06;;;;;;;;;;;;;;;20.18;70.67;101557.22;4992111;28;1633;-45
2021/10/14 09:02:34;;;;;;;;;;;;;;;20.08;70.63;101552.72;4986941;28;1499;-46
2021/10/14 09:05:05;;;;;;;;;;;;;;;19.99;71.03;101549.78;4974831;28;1902;-47
2021/10/14 09:07:40;;;;;;;;;;;;;;;20.18;71.12;101559.06;4986426;28;1534;-45
2021/10/14 09:10:11;;;;;;;;;;;;;;;20.30;70.88;101557.22;4979063;28;1360;-46
2021/10/14 09:12:39;;;;;;;;;;;;;;;20.22;71.21;101558.66;4974956;28;1072;-46
2021/10/14 09:15:06;;;;;;;;;;;;;;;20.08;70.28;101558.94;4987269;28;1817;-46
2021/10/14 09:17:50;;;;;;;;;;;;;;;20.03;71.73;101566.50;4991868;28;1581;-45
2021/10/14 09:20:38;;;;;;;;;;;;;;;20.56;69.51;101555.91;4981497;28;1505;-47
2021/10/14 09:23:21;;;;;;;;;;;;;;;20.49;69.96;101556.53;4987819;28;1594;-46
2021/10/14 09:25:49;;;;;;;;;;;;;;;20.09;70.80;101560.63;4986926;28;1941;-46
2021/10/14 09:28:19;;;;;;;;;;;;;;;19.92;71.25;101553.09;4992333;28;1579;-46
2021/10/14 09:30:51;;;;;;;;;;;;;;;20.32;69.54;101550.72;4987036;28;1482;-46
2021/10/14 09:33:30;;;;;;;;;;;;;;;20.37;69.60;101555.72;4979670;28;1357;-45
2021/10/14 09:36:14;;;;;;;;;;;;;;;20.26;69.69;101554.75;4976446;28;1282;-46
2021/10/14 09:38:47;;;;;;;;;;;;;;;20.00;70.06;101546.13;4980580;28;1487;-46
2021/10/14 09:41:25;;;;;;;;;;;;;;;19.93;70.61;101563.69;4992396;28;1813;-45
2021/10/14 09:44:08;;;;;;;;;;;;;;;20.08;69.79;101560.78;4984836;28;1985;-46
2021/10/14 09:46:46;;;;;;;;;;;;;;;20.09;69.81;101555.25;4989511;28;1486;-46
2021/10/14 09:49:17;;;;;;;;;;;;;;;19.96;70.22;101549.19;4989170;28;1421;-45
2021/10/14 09:51:45;;;;;;;;;;;;;;;19.95;71.20;101563.56;4984953;28;1957;-47
2021/10/14 09:54:16;;;;;;;;;;;;;;;20.27;69.44;101564.53;4988933;28;1549;-47
2021/10/14 09:56:43;;;;;;;;;;;;;;;20.62;68.71;101558.13;4983719;28;1783;-46
2021/10/14 09:59:09;;;;;;;;;;;;;;;20.37;69.61;101564.66;4979812;28;1753;-45
2021/10/14 10:01:41;;;;;;;;;;;;;;;20.20;70.15;101560.63;4985572;28;1415;-46
2021/10/14 10:04:08;;;;;;;;;;;;;;;20.07;70.00;101562.59;4980203;28;1999;-46
2021/10/14 10:06:35;;;;;;;;;;;;;;;20.56;69.26;101565.81;4987868;28;1534;-45
2021/10/14 10:09:08;;;;;;;;;;;;;;;20.63;69.04;101565.22;4983511;28;1927;-46
2021/10/14 10:14:25;;;;;;;;;;;;;;;20.17;70.07;101560.03;4982196;28;2299;-46
2021/10/14 10:16:56;;;;;;;;;;;;;;;20.34;69.74;101538.03;4980977;28;1677;-46
2021/10/14 10:19:45;;;;;;;;;;;;;;;20.76;67.64;101542.69;4981123;28;1726;-46
2021/10/14 10:22:15;;;;;;;;;;;;;;;20.46;68.36;101536.16;4988463;28;1909;-46
2021/10/14 10:24:41;;;;;;;;;;;;;;;20.21;69.18;101534.63;4980556;28;1902;-46
2021/10/14 10:27:10;;;;;;;;;;;;;;;20.13;69.28;101535.25;4987046;28;1463;-46
2021/10/14 10:29:44;;;;;;;;;;;;;;;20.52;68.53;101516.84;4979017;28;1462;-45
2021/10/14 10:32:18;;;;;;;;;;;;;;;20.71;68.07;101516.22;4980947;28;1655;-46
2021/10/14 10:34:48;;;;;;;;;;;;;;;20.36;68.34;101511.03;4979576;28;1598;-46
2021/10/14 10:37:17;;;;;;;;;;;;;;;20.21;70.17;101526.56;4972884;28;1609;-45
2021/10/14 10:39:48;;;;;;;;;;;;;;;20.24;68.84;101516.44;4980373;28;1786;-46
2021/10/14 10:42:21;;;;;;;;;;;;;;;20.78;68.17;101513.84;4981581;28;1715;-45
2021/10/14 10:44:50;;;;;;;;;;;;;;;20.57;67.91;101514.66;4971929;28;1977;-46
2021/10/14 10:47:35;;;;;;;;;;;;;;;20.37;68.99;101523.47;4972636;28;1094;-46
2021/10/14 10:50:02;;;;;;;;;;;;;;;20.15;69.28;101522.53;4982123;28;1028;-45
2021/10/14 10:52:38;;;;;;;;;;;;;;;20.32;69.36;101520.34;4973762;28;1417;-45
2021/10/14 10:55:29;;;;;;;;;;;;;;;20.83;67.06;101516.97;4981870;28;1437;-45
2021/10/14 10:57:59;;;;;;;;;;;;;;;20.53;68.57;101515.88;4963268;28;1349;-45
2021/10/14 11:00:26;;;;;;;;;;;;;;;20.29;69.61;101523.25;4977093;28;1430;-45
2021/10/14 11:03:07;;;;;;;;;;;;;;;20.05;70.17;101524.28;4977978;28;1823;-46
2021/10/14 11:05:41;;;;;;;;;;;;;;;20.48;68.79;101503.81;4979208;28;1993;-46
2021/10/14 11:08:11;;;;;;;;;;;;;;;20.60;68.43;101500.13;4986506;28;1612;-46
2021/10/14 11:10:38;;;;;;;;;;;;;;;20.38;67.98;101495.66;4982786;28;1501;-45
2021/10/14 11:13:08;;;;;;;;;;;;;;;20.19;69.03;101504.34;4983251;28;1424;-46
2021/10/14 11:15:41;;;;;;;;;;;;;;;20.24;69.84;101486.88;4977522;28;1538;-46
2021/10/14 11:18:08;;;;;;;;;;;;;;;20.81;66.92;101478.63;4980376;28;1336;-46
2021/10/14 11:20:35;;;;;;;;;;;;;;;20.58;68.23;101486.78;4985131;28;1078;-46
2021/10/14 11:23:05;;;;;;;;;;;;;;;20.31;69.42;101491.75;4989095;28;1604;-45
2021/10/14 11:25:36;;;;;;;;;;;;;;;20.16;69.92;101501.94;4974623;28;1980;-45
2021/10/14 11:28:05;;;;;;;;;;;;;;;20.42;69.05;101489.03;4979767;28;1665;-46
2021/10/14 11:30:41;;;;;;;;;;;;;;;20.84;66.84;101498.03;4984582;28;1557;-45
2021/10/14 11:33:12;;;;;;;;;;;;;;;20.50;68.62;101499.16;4981093;28;1935;-45
2021/10/14 11:35:43;;;;;;;;;;;;;;;20.28;69.43;101511.66;4986161;28;1343;-45
2021/10/14 11:38:11;;;;;;;;;;;;;;;20.18;68.61;101494.59;4989017;28;1451;-45
2021/10/14 11:40:43;;;;;;;;;;;;;;;20.45;68.67;101486.09;4989401;28;1885;-46
2021/10/14 11:43:10;;;;;;;;;;;;;;;20.77;66.36;101493.31;4984429;28;2056;-45
2021/10/14 11:45:58;;;;;;;;;;;;;;;20.64;66.95;101485.44;4976333;28;1995;-45
2021/10/14 11:48:40;;;;;;;;;;;;;;;20.35;69.19;101482.47;4984922;28;1596;-45
2021/10/14 11:51:13;;;;;;;;;;;;;;;20.20;69.68;101477.38;4988513;28;1628;-45
2021/10/14 11:53:54;;;;;;;;;;;;;;;20.49;68.50;101475.94;4990659;28;1614;-45
2021/10/14 11:56:29;;;;;;;;;;;;;;;20.61;67.28;101475.81;4989164;28;1810;-45
2021/10/14 11:59:03;;;;;;;;;;;;;;;20.39;68.77;101467.78;4994678;28;1791;-46
2021/10/14 12:01:32;;;;;;;;;;;;;;;20.26;68.25;101468.81;4983102;28;1622;-45
2021/10/14 12:04:00;;;;;;;;;;;;;;;20.16;69.77;101461.66;4992153;28;1651;-45
2021/10/14 12:06:32;;;;;;;;;;;;;;;20.57;68.64;101465.41;4998117;28;1910;-46
2021/10/14 12:08:59;;;;;;;;;;;;;;;20.48;67.82;101472.41;4977934;28;1843;-45
2021/10/14 12:11:27;;;;;;;;;;;;;;;20.24;69.38;101464.56;4988493;28;1647;-46
2021/10/14 12:13:59;;;;;;;;;;;;;;;20.22;69.31;101474.56;4988406;28;1922;-45
2021/10/14 12:16:30;;;;;;;;;;;;;;;20.18;69.72;101452.47;4986986;28;1598;-46
2021/10/14 12:19:14;;;;;;;;;;;;;;;20.44;68.65;101457.53;4994530;28;1859;-45
2021/10/14 12:22:06;;;;;;;;;;;;;;;20.28;69.11;101457.94;4978791;28;1100;-46
2021/10/14 12:24:36;;;;;;;;;;;;;;;20.10;69.14;101465.69;4990024;28;1445;-46
2021/10/14 12:27:03;;;;;;;;;;;;;;;20.10;70.05;101473.75;4989375;28;1965;-46
2021/10/14 12:29:34;;;;;;;;;;;;;;;20.30;69.42;101469.41;4981803;28;1425;-44
2021/10/14 12:32:08;;;;;;;;;;;;;;;20.20;69.59;101460.41;4977979;28;1571;-44
2021/10/14 12:34:58;;;;;;;;;;;;;;;20.14;69.39;101477.03;4994790;28;1658;-46
2021/10/14 12:37:28;;;;;;;;;;;;;;;20.09;68.93;101480.06;4991812;28;1890;-45
2021/10/14 12:40:14;;;;;;;;;;;;;;;20.10;70.08;101460.31;4978438;28;1634;-45
2021/10/14 12:42:50;;;;;;;;;;;;;;;20.18;69.60;101471.28;4976718;28;1985;-45
2021/10/14 12:45:38;;;;;;;;;;;;;;;20.07;68.87;101465.94;4981702;28;1918;-45
2021/10/14 12:48:21;;;;;;;;;;;;;;;19.97;70.34;101460.44;4992833;28;1433;-46
2021/10/14 12:51:04;;;;;;;;;;;;;;;20.02;69.18;101458.25;4990921;28;1623;-45
2021/10/14 12:53:40;;;;;;;;;;;;;;;20.21;69.67;101433.44;4988156;28;1494;-48
2021/10/14 12:56:10;;;;;;;;;;;;;;;20.05;68.93;101454.47;4981685;28;2027;-46
2021/10/14 12:58:39;;;;;;;;;;;;;;;20.02;70.20;101457.41;4986980;28;1687;-45
2021/10/14 13:01:07;;;;;;;;;;;;;;;20.03;70.12;101476.09;4983769;28;1443;-45
2021/10/14 13:03:42;;;;;;;;;;;;;;;20.19;69.18;101466.75;4984074;28;1619;-45
2021/10/14 13:06:13;;;;;;;;;;;;;;;20.07;69.23;101449.81;4977421;28;2055;-46
2021/10/14 13:08:46;;;;;;;;;;;;;;;20.12;68.89;101466.41;4996734;28;1609;-46
2021/10/14 13:11:14;;;;;;;;;;;;;;;19.99;70.22;101468.38;4982881;28;1649;-45
2021/10/14 13:13:46;;;;;;;;;;;;;;;19.83;70.66;101460.72;4981442;28;1989;-45
2021/10/14 13:16:13;;;;;;;;;;;;;;;19.90;69.12;101463.78;4983879;28;1638;-45
2021/10/14 13:18:41;;;;;;;;;;;;;;;19.95;68.90;101462.41;4982718;28;1243;-45
2021/10/14 13:21:08;;;;;;;;;;;;;;;19.99;69.35;101458.50;4989294;28;1590;-45
2021/10/14 13:23:38;;;;;;;;;;;;;;;20.02;69.62;101452.03;4987199;28;1520;-46
2021/10/14 13:26:06;;;;;;;;;;;;;;;20.01;69.09;101455.69;4982766;28;1883;-45
2021/10/14 13:28:41;;;;;;;;;;;;;;;20.07;68.78;101465.94;4981890;28;1490;-45
2021/10/14 13:31:09;;;;;;;;;;;;;;;19.88;69.01;101465.75;4983028;28;1547;-45
2021/10/14 13:33:36;;;;;;;;;;;;;;;19.85;69.60;101473.03;4982260;28;1531;-45
2021/10/14 13:36:07;;;;;;;;;;;;;;;19.88;70.43;101473.78;4994327;28;1472;-45
2021/10/14 13:38:35;;;;;;;;;;;;;;;20.11;69.90;101462.00;4986579;28;1667;-45